createdAt,value
2016-11-14T00:01:05.861Z,89.59
2016-11-14T00:02:20.988Z,89.59
2016-11-14T00:03:35.797Z,90.26
2016-11-14T00:04:51.864Z,89.97
2016-11-14T00:06:06.897Z,90.07
2016-11-14T00:07:20.528Z,89.97
2016-11-14T00:08:36.569Z,90.07
2016-11-14T00:09:48.704Z,90.45
2016-11-14T00:11:04.183Z,89.92
2016-11-14T00:12:20.237Z,89.78
2016-11-14T00:13:34.683Z,90.26
2016-11-14T00:14:50.851Z,89.97
2016-11-14T00:16:06.663Z,89.88
2016-11-14T00:17:20.515Z,89.78
2016-11-14T00:18:35.988Z,89.97
2016-11-14T00:19:46.679Z,90.11
2016-11-14T00:21:00.551Z,89.97
2016-11-14T00:22:14.258Z,90.02
2016-11-14T00:23:27.699Z,89.83
2016-11-14T00:24:44.217Z,90.59
2016-11-14T00:26:00.596Z,90.49
2016-11-14T00:27:15.176Z,90.49
2016-11-14T00:28:31.456Z,90.68
2016-11-14T00:29:45.023Z,90.59
2016-11-14T00:30:58.321Z,90.49
2016-11-14T00:32:11.798Z,90.4
2016-11-14T00:33:28.621Z,90.59
2016-11-14T00:34:40.066Z,90.49
2016-11-14T00:35:55.048Z,90.02
2016-11-14T00:37:11.205Z,90.4
2016-11-14T00:38:24.923Z,90.3
2016-11-14T00:39:37.086Z,90.21
2016-11-14T00:40:51.497Z,90.11
2016-11-14T00:42:07.196Z,90.02
2016-11-14T00:43:23.385Z,90.02
2016-11-14T00:44:37.814Z,90.21
2016-11-14T00:45:52.650Z,90.3
2016-11-14T00:47:09.723Z,90.11
2016-11-14T00:48:24.892Z,90.11
2016-11-14T00:49:39.433Z,89.83
2016-11-14T00:50:55.984Z,90.02
2016-11-14T00:52:11.428Z,89.92
2016-11-14T00:53:27.958Z,90.02
2016-11-14T00:54:44.396Z,90.02
2016-11-14T00:56:00.716Z,89.92
2016-11-14T00:57:17.221Z,89.36
2016-11-14T00:58:33.600Z,89.36
2016-11-14T00:59:48.852Z,90.21
2016-11-14T01:01:04.332Z,90.11
2016-11-14T01:02:17.748Z,89.26
2016-11-14T01:03:32.694Z,89.45
2016-11-14T01:04:49.068Z,89.26
2016-11-14T01:06:02.804Z,89.54
2016-11-14T01:07:16.112Z,89.54
2016-11-14T01:08:33.321Z,89.17
2016-11-14T01:09:46.874Z,89.26
2016-11-14T01:11:01.769Z,89.36
2016-11-14T01:12:17.078Z,90.3
2016-11-14T01:13:33.610Z,90.3
2016-11-14T01:14:48.510Z,89.36
2016-11-14T01:16:05.407Z,89.73
2016-11-14T01:17:18.937Z,89.45
2016-11-14T01:18:34.832Z,89.54
2016-11-14T01:19:48.765Z,90.11
2016-11-14T01:21:04.634Z,90.11
2016-11-14T01:22:18.060Z,90.02
2016-11-14T01:23:33.839Z,89.83
2016-11-14T01:24:50.199Z,90.3
2016-11-14T01:26:06.118Z,90.11
2016-11-14T01:27:22.009Z,89.92
2016-11-14T01:28:38.558Z,89.92
2016-11-14T01:29:53.335Z,90.02
2016-11-14T01:31:07.184Z,89.73
2016-11-14T01:32:21.425Z,90.21
2016-11-14T01:33:37.460Z,89.45
2016-11-14T01:34:50.529Z,89.64
2016-11-14T01:36:07.103Z,88.89
2016-11-14T01:37:23.243Z,89.45
2016-11-14T01:38:37.563Z,89.26
2016-11-14T01:39:52.647Z,89.45
2016-11-14T01:41:07.136Z,89.17
2016-11-14T01:42:23.865Z,89.07
2016-11-14T01:43:40.685Z,89.17
2016-11-14T01:44:55.529Z,89.45
2016-11-14T01:46:10.748Z,89.12
2016-11-14T01:47:22.642Z,89.36
2016-11-14T01:48:35.628Z,89.22
2016-11-14T01:49:51.505Z,88.93
2016-11-14T01:51:06.804Z,89.03
2016-11-14T01:52:22.504Z,89.12
2016-11-14T01:53:38.786Z,89.03
2016-11-14T01:54:54.408Z,89.4
2016-11-14T01:56:10.032Z,89.22
2016-11-14T01:57:24.556Z,89.03
2016-11-14T01:58:37.821Z,89.5
2016-11-14T01:59:52.652Z,89.5
2016-11-14T02:01:05.069Z,89.22
2016-11-14T02:02:20.505Z,90.07
2016-11-14T02:03:36.372Z,90.07
2016-11-14T02:04:50.811Z,89.97
2016-11-14T02:06:07.334Z,89.88
2016-11-14T02:07:22.801Z,89.78
2016-11-14T02:08:37.952Z,89.88
2016-11-14T02:09:53.098Z,90.16
2016-11-14T02:11:06.552Z,90.07
2016-11-14T02:12:19.527Z,90.16
2016-11-14T02:13:31.424Z,90.16
2016-11-14T02:14:46.897Z,90.16
2016-11-14T02:16:01.379Z,89.69
2016-11-14T02:17:14.928Z,89.97
2016-11-14T02:18:29.882Z,89.5
2016-11-14T02:19:46.571Z,89.12
2016-11-14T02:21:01.778Z,89.31
2016-11-14T02:22:15.994Z,89.5
2016-11-14T02:23:29.851Z,89.97
2016-11-14T02:24:46.212Z,89.69
2016-11-14T02:26:02.566Z,89.78
2016-11-14T02:27:18.975Z,89.88
2016-11-14T02:28:34.041Z,90.26
2016-11-14T02:29:48.779Z,90.64
2016-11-14T02:31:03.242Z,90.64
2016-11-14T02:32:17.090Z,90.45
2016-11-14T02:33:31.802Z,90.3
2016-11-14T02:34:46.224Z,90.3
2016-11-14T02:35:59.660Z,90.49
2016-11-14T02:37:15.856Z,90.4
2016-11-14T02:38:30.693Z,90.21
2016-11-14T02:39:46.150Z,90.02
2016-11-14T02:41:00.854Z,89.83
2016-11-14T02:42:16.905Z,89.83
2016-11-14T02:43:32.943Z,89.78
2016-11-14T02:44:49.466Z,89.73
2016-11-14T02:46:05.735Z,90.11
2016-11-14T02:47:20.191Z,90.02
2016-11-14T02:48:35.218Z,89.69
2016-11-14T02:49:51.246Z,89.97
2016-11-14T02:51:06.883Z,90.07
2016-11-14T02:52:21.948Z,90.11
2016-11-14T02:53:38.372Z,90.11
2016-11-14T02:54:54.520Z,90.02
2016-11-14T02:56:07.505Z,89.83
2016-11-14T02:57:22.115Z,89.54
2016-11-14T02:58:38.256Z,89.45
2016-11-14T02:59:54.776Z,88.98
2016-11-14T03:01:08.456Z,89.36
2016-11-14T03:02:22.891Z,89.17
2016-11-14T03:03:36.889Z,89.07
2016-11-14T03:04:52.840Z,89.17
2016-11-14T03:06:08.382Z,89.17
2016-11-14T03:07:20.102Z,89.07
2016-11-14T03:08:35.545Z,88.98
2016-11-14T03:09:51.534Z,88.79
2016-11-14T03:11:05.523Z,88.7
2016-11-14T03:12:21.282Z,89.17
2016-11-14T03:13:37.447Z,88.6
2016-11-14T03:14:52.424Z,89.07
2016-11-14T03:16:05.586Z,88.6
2016-11-14T03:17:20.148Z,88.89
2016-11-14T03:18:34.417Z,88.51
2016-11-14T03:19:44.761Z,88.04
2016-11-14T03:21:00.611Z,87.75
2016-11-14T03:22:13.976Z,87.85
2016-11-14T03:23:30.284Z,87.75
2016-11-14T03:24:45.818Z,87.75
2016-11-14T03:25:58.072Z,88.04
2016-11-14T03:27:14.913Z,87.75
2016-11-14T03:28:29.096Z,87.47
2016-11-14T03:29:42.580Z,87.56
2016-11-14T03:30:57.628Z,87.28
2016-11-14T03:32:13.363Z,87.75
2016-11-14T03:33:28.746Z,87.47
2016-11-14T03:34:42.105Z,87.56
2016-11-14T03:35:56.950Z,87.28
2016-11-14T03:37:13.743Z,87.47
2016-11-14T03:38:28.586Z,86.71
2016-11-14T03:39:43.009Z,86.99
2016-11-14T03:40:59.269Z,86.71
2016-11-14T03:42:14.830Z,86.71
2016-11-14T03:43:30.079Z,86.8
2016-11-14T03:44:45.014Z,86.43
2016-11-14T03:45:59.280Z,86.71
2016-11-14T03:47:10.922Z,86.71
2016-11-14T03:48:25.887Z,86.71
2016-11-14T03:49:42.738Z,86.99
2016-11-14T03:50:56.986Z,87.09
2016-11-14T03:52:11.454Z,87.09
2016-11-14T03:53:24.884Z,87.18
2016-11-14T03:54:41.345Z,87.28
2016-11-14T03:55:56.302Z,87.28
2016-11-14T03:57:10.554Z,87.56
2016-11-14T03:58:26.415Z,87.37
2016-11-14T03:59:41.752Z,87.47
2016-11-14T04:00:55.217Z,87.56
2016-11-14T04:02:08.667Z,87.56
2016-11-14T04:03:21.650Z,87.37
2016-11-14T04:04:36.848Z,87.75
2016-11-14T04:05:52.452Z,87.75
2016-11-14T04:07:08.385Z,87.66
2016-11-14T04:08:22.815Z,87.37
2016-11-14T04:09:37.809Z,87.56
2016-11-14T04:10:51.048Z,87.37
2016-11-14T04:12:05.722Z,87.47
2016-11-14T04:13:22.296Z,87.47
2016-11-14T04:14:38.167Z,87.37
2016-11-14T04:15:53.971Z,87.37
2016-11-14T04:17:05.867Z,87.37
2016-11-14T04:18:20.594Z,87.37
2016-11-14T04:19:36.137Z,87.56
2016-11-14T04:20:50.739Z,87.37
2016-11-14T04:22:06.641Z,87.28
2016-11-14T04:23:22.807Z,87.56
2016-11-14T04:24:37.456Z,87.37
2016-11-14T04:25:51.252Z,87.37
2016-11-14T04:27:06.769Z,87.56
2016-11-14T04:28:22.778Z,87.66
2016-11-14T04:29:35.745Z,87.75
2016-11-14T04:30:49.998Z,87.94
2016-11-14T04:32:04.641Z,88.6
2016-11-14T04:33:19.882Z,88.6
2016-11-14T04:34:36.050Z,88.32
2016-11-14T04:35:49.580Z,88.51
2016-11-14T04:37:04.453Z,87.75
2016-11-14T04:38:16.689Z,88.04
2016-11-14T04:39:29.658Z,87.94
2016-11-14T04:40:46.334Z,87.75
2016-11-14T04:42:02.475Z,87.85
2016-11-14T04:43:18.456Z,88.04
2016-11-14T04:44:30.247Z,88.32
2016-11-14T04:45:46.252Z,88.13
2016-11-14T04:47:00.844Z,88.32
2016-11-14T04:48:14.374Z,88.13
2016-11-14T04:49:30.100Z,88.42
2016-11-14T04:50:45.195Z,88.13
2016-11-14T04:51:59.824Z,88.6
2016-11-14T04:53:14.341Z,88.13
2016-11-14T04:54:30.701Z,88.23
2016-11-14T04:55:44.637Z,88.23
2016-11-14T04:57:00.259Z,88.23
2016-11-14T04:58:15.167Z,88.51
2016-11-14T04:59:27.626Z,88.32
2016-11-14T05:00:44.033Z,88.98
2016-11-14T05:02:00.524Z,88.32
2016-11-14T05:03:14.877Z,88.42
2016-11-14T05:04:29.932Z,88.13
2016-11-14T05:05:44.690Z,88.37
2016-11-14T05:06:59.508Z,88.75
2016-11-14T05:08:13.147Z,88.65
2016-11-14T05:09:27.644Z,88.75
2016-11-14T05:10:43.553Z,88.75
2016-11-14T05:11:58.546Z,88.75
2016-11-14T05:13:15.245Z,88.93
2016-11-14T05:14:30.776Z,88.56
2016-11-14T05:15:46.000Z,88.56
2016-11-14T05:17:01.102Z,88.93
2016-11-14T05:18:15.297Z,88.28
2016-11-14T05:19:28.911Z,88.65
2016-11-14T05:20:44.791Z,88.75
2016-11-14T05:21:57.917Z,89.22
2016-11-14T05:23:12.269Z,89.22
2016-11-14T05:24:26.518Z,89.5
2016-11-14T05:25:41.451Z,90.07
2016-11-14T05:26:56.927Z,90.26
2016-11-14T05:28:10.307Z,89.22
2016-11-14T05:29:24.530Z,89.4
2016-11-14T05:30:38.027Z,89.5
2016-11-14T05:31:51.990Z,89.5
2016-11-14T05:33:06.553Z,89.5
2016-11-14T05:34:21.364Z,89.4
2016-11-14T05:35:36.030Z,89.4
2016-11-14T05:36:50.863Z,89.4
2016-11-14T05:38:03.836Z,88.84
2016-11-14T05:39:20.921Z,89.03
2016-11-14T05:40:35.821Z,89.4
2016-11-14T05:41:50.000Z,89.12
2016-11-14T05:43:06.724Z,89.03
2016-11-14T05:44:18.687Z,89.03
2016-11-14T05:45:35.536Z,88.93
2016-11-14T05:46:48.577Z,89.22
2016-11-14T05:48:00.288Z,89.36
2016-11-14T05:49:16.674Z,89.17
2016-11-14T05:50:33.080Z,88.93
2016-11-14T05:51:48.037Z,89.12
2016-11-14T05:53:04.342Z,88.93
2016-11-14T05:54:20.909Z,89.03
2016-11-14T05:55:35.506Z,88.93
2016-11-14T05:56:50.473Z,89.26
2016-11-14T05:58:04.960Z,89.45
2016-11-14T05:59:19.788Z,88.7
2016-11-14T06:00:34.429Z,88.7
2016-11-14T06:01:49.109Z,89.22
2016-11-14T06:03:05.097Z,88.75
2016-11-14T06:04:21.517Z,89.03
2016-11-14T06:05:36.896Z,89.03
2016-11-14T06:06:49.279Z,88.93
2016-11-14T06:08:06.229Z,89.12
2016-11-14T06:09:21.450Z,88.56
2016-11-14T06:10:37.816Z,89.22
2016-11-14T06:11:50.956Z,89.03
2016-11-14T06:13:06.658Z,89.36
2016-11-14T06:14:18.808Z,89.31
2016-11-14T06:15:33.204Z,88.84
2016-11-14T06:16:48.036Z,89.31
2016-11-14T06:18:04.368Z,89.17
2016-11-14T06:19:20.600Z,89.22
2016-11-14T06:20:34.146Z,88.98
2016-11-14T06:21:49.491Z,89.03
2016-11-14T06:23:05.829Z,89.22
2016-11-14T06:24:22.340Z,89.31
2016-11-14T06:25:37.129Z,89.12
2016-11-14T06:26:53.828Z,89.03
2016-11-14T06:28:07.115Z,89.03
2016-11-14T06:29:20.528Z,88.93
2016-11-14T06:30:37.405Z,88.93
2016-11-14T06:31:52.340Z,88.65
2016-11-14T06:33:09.569Z,88.93
2016-11-14T06:34:25.926Z,88.75
2016-11-14T06:35:41.987Z,89.22
2016-11-14T06:36:58.877Z,88.75
2016-11-14T06:38:12.333Z,88.93
2016-11-14T06:39:28.609Z,89.17
2016-11-14T06:40:43.568Z,88.56
2016-11-14T06:41:58.597Z,88.93
2016-11-14T06:43:13.906Z,88.75
2016-11-14T06:44:30.241Z,88.56
2016-11-14T06:45:44.957Z,88.7
2016-11-14T06:47:00.049Z,88.65
2016-11-14T06:48:16.192Z,88.79
2016-11-14T06:49:29.869Z,88.89
2016-11-14T06:50:45.948Z,88.89
2016-11-14T06:52:00.408Z,88.6
2016-11-14T06:53:14.973Z,88.79
2016-11-14T06:54:29.636Z,88.98
2016-11-14T06:55:44.631Z,88.51
2016-11-14T06:57:00.907Z,88.32
2016-11-14T06:58:15.565Z,88.7
2016-11-14T06:59:31.803Z,88.13
2016-11-14T07:00:44.531Z,87.94
2016-11-14T07:01:58.736Z,88.04
2016-11-14T07:03:12.335Z,87.75
2016-11-14T07:04:26.802Z,87.75
2016-11-14T07:05:40.396Z,87.28
2016-11-14T07:06:55.842Z,87.37
2016-11-14T07:08:11.556Z,87.47
2016-11-14T07:09:24.782Z,87.37
2016-11-14T07:10:39.756Z,87.18
2016-11-14T07:11:54.269Z,87.28
2016-11-14T07:13:09.200Z,86.99
2016-11-14T07:14:23.820Z,87.28
2016-11-14T07:15:38.962Z,87.18
2016-11-14T07:16:54.419Z,87.18
2016-11-14T07:18:10.353Z,87.28
2016-11-14T07:19:24.525Z,87.09
2016-11-14T07:20:37.488Z,86.71
2016-11-14T07:21:52.516Z,86.71
2016-11-14T07:23:07.128Z,86.71
2016-11-14T07:24:23.693Z,86.43
2016-11-14T07:25:40.959Z,86.43
2016-11-14T07:26:55.991Z,86.52
2016-11-14T07:28:10.489Z,86.52
2016-11-14T07:29:25.781Z,86.71
2016-11-14T07:30:40.214Z,86.47
2016-11-14T07:31:56.493Z,86.1
2016-11-14T07:33:12.954Z,86.33
2016-11-14T07:34:28.188Z,85.71
2016-11-14T07:35:44.900Z,84.48
2016-11-14T07:36:59.154Z,83.58
2016-11-14T07:38:14.034Z,80.93
2016-11-14T07:39:30.709Z,78.31
2016-11-14T07:40:45.313Z,75.51
2016-11-14T07:41:57.130Z,71.91
2016-11-14T07:43:13.165Z,68.06
2016-11-14T07:44:27.588Z,66.29
2016-11-14T07:45:44.130Z,64.01
2016-11-14T07:47:00.233Z,61.39
2016-11-14T07:48:13.192Z,58.17
2016-11-14T07:49:28.296Z,57.03
2016-11-14T07:50:45.218Z,56.17
2016-11-14T07:51:59.592Z,56.55
2016-11-14T07:53:15.628Z,56.93
2016-11-14T07:54:30.701Z,55.98
2016-11-14T07:55:45.658Z,55.06
2016-11-14T07:56:57.995Z,54.78
2016-11-14T07:58:14.652Z,54.21
2016-11-14T07:59:29.378Z,53.83
2016-11-14T08:00:45.455Z,53.83
2016-11-14T08:01:58.943Z,52.97
2016-11-14T08:03:13.372Z,52.05
2016-11-14T08:04:28.098Z,51.29
2016-11-14T08:05:42.410Z,51.2
2016-11-14T08:06:58.447Z,51.57
2016-11-14T08:08:13.380Z,50.74
2016-11-14T08:09:29.149Z,47.34
2016-11-14T08:10:43.866Z,46.68
2016-11-14T08:11:58.641Z,46.01
2016-11-14T08:13:14.991Z,45.73
2016-11-14T08:14:31.593Z,45.35
2016-11-14T08:15:45.340Z,46.4
2016-11-14T08:17:01.771Z,46.88
2016-11-14T08:18:16.953Z,46.88
2016-11-14T08:19:33.516Z,46.75
2016-11-14T08:20:48.780Z,45.92
2016-11-14T08:22:04.565Z,45.9
2016-11-14T08:23:21.026Z,46.37
2016-11-14T08:24:37.723Z,47.99
2016-11-14T08:25:52.116Z,47.04
2016-11-14T08:27:06.965Z,46.66
2016-11-14T08:28:23.913Z,45.42
2016-11-14T08:29:38.685Z,44.87
2016-11-14T08:30:55.617Z,44.87
2016-11-14T08:32:11.360Z,44.95
2016-11-14T08:33:27.736Z,45.61
2016-11-14T08:34:40.944Z,45.61
2016-11-14T08:35:56.127Z,46.66
2016-11-14T08:37:12.279Z,46.25
2016-11-14T08:38:28.178Z,47.11
2016-11-14T08:39:43.800Z,46.19
2016-11-14T08:40:58.461Z,45.14
2016-11-14T08:42:09.013Z,45.26
2016-11-14T08:43:24.961Z,44.68
2016-11-14T08:44:37.757Z,43.28
2016-11-14T08:45:52.707Z,42.99
2016-11-14T08:47:04.957Z,41.3
2016-11-14T08:48:18.663Z,41.69
2016-11-14T08:49:35.750Z,40.54
2016-11-14T08:50:50.410Z,39.61
2016-11-14T08:52:06.635Z,38.95
2016-11-14T08:53:22.990Z,38.37
2016-11-14T08:54:38.309Z,37.54
2016-11-14T08:55:52.922Z,37.34
2016-11-14T08:57:07.737Z,36.41
2016-11-14T08:58:23.631Z,35.27
2016-11-14T08:59:38.513Z,34.79
2016-11-14T09:00:53.865Z,34.69
2016-11-14T09:02:08.515Z,33.95
2016-11-14T09:03:22.952Z,33.28
2016-11-14T09:04:37.713Z,33.57
2016-11-14T09:05:50.051Z,34.5
2016-11-14T09:07:05.031Z,34.03
2016-11-14T09:08:21.058Z,33.37
2016-11-14T09:09:36.957Z,32.42
2016-11-14T09:10:51.810Z,32.14
2016-11-14T09:12:04.878Z,31.77
2016-11-14T09:13:16.703Z,31.87
2016-11-14T09:14:30.726Z,30.64
2016-11-14T09:15:47.008Z,29.8
2016-11-14T09:17:01.456Z,28.09
2016-11-14T09:18:16.822Z,27.34
2016-11-14T09:19:30.352Z,26.67
2016-11-14T09:20:45.548Z,26.01
2016-11-14T09:21:57.274Z,25.65
2016-11-14T09:23:11.819Z,24.5
2016-11-14T09:24:25.321Z,24.4
2016-11-14T09:25:40.414Z,24.4
2016-11-14T09:26:54.768Z,23.92
2016-11-14T09:28:10.422Z,23.44
2016-11-14T09:29:24.753Z,23.54
2016-11-14T09:30:40.118Z,23.46
2016-11-14T09:31:53.182Z,22.13
2016-11-14T09:33:09.513Z,22.4
2016-11-14T09:34:23.140Z,23.63
2016-11-14T09:35:38.110Z,25.73
2016-11-14T09:36:54.724Z,26.29
2016-11-14T09:38:09.578Z,26.56
2016-11-14T09:39:21.428Z,27.5
2016-11-14T09:40:36.695Z,28.25
2016-11-14T09:41:52.056Z,29.69
2016-11-14T09:43:08.966Z,31.18
2016-11-14T09:44:25.276Z,32.03
2016-11-14T09:45:35.429Z,32.87
2016-11-14T09:46:50.360Z,34.18
2016-11-14T09:48:05.409Z,35.31
2016-11-14T09:49:22.130Z,36.45
2016-11-14T09:50:35.295Z,37.38
2016-11-14T09:51:51.277Z,37.86
2016-11-14T09:53:07.454Z,38.7
2016-11-14T09:54:21.134Z,38.6
2016-11-14T09:55:35.067Z,39.17
2016-11-14T09:56:49.273Z,39.17
2016-11-14T09:58:02.482Z,39.17
2016-11-14T09:59:16.269Z,39.36
2016-11-14T10:00:29.491Z,39.93
2016-11-14T10:01:43.915Z,40.48
2016-11-14T10:02:54.637Z,40.48
2016-11-14T10:04:09.350Z,41.14
2016-11-14T10:05:25.747Z,41.72
2016-11-14T10:06:42.157Z,41.72
2016-11-14T10:07:58.742Z,41.81
2016-11-14T10:09:15.674Z,41.43
2016-11-14T10:10:31.554Z,41.05
2016-11-14T10:11:46.711Z,40.59
2016-11-14T10:13:01.642Z,39.84
2016-11-14T10:14:14.841Z,40.59
2016-11-14T10:15:29.596Z,40.48
2016-11-14T10:16:45.595Z,40.48
2016-11-14T10:18:02.285Z,41.34
2016-11-14T10:19:15.505Z,41.62
2016-11-14T10:20:32.351Z,41.43
2016-11-14T10:21:45.820Z,41.43
2016-11-14T10:22:58.780Z,41.43
2016-11-14T10:24:14.172Z,41.53
2016-11-14T10:25:30.912Z,42.19
2016-11-14T10:26:45.386Z,42.55
2016-11-14T10:27:59.776Z,43.02
2016-11-14T10:29:14.387Z,42.93
2016-11-14T10:30:29.403Z,43.6
2016-11-14T10:31:45.440Z,42.93
2016-11-14T10:33:01.002Z,43.12
2016-11-14T10:34:15.985Z,43.12
2016-11-14T10:35:30.743Z,42.93
2016-11-14T10:36:45.190Z,43.21
2016-11-14T10:37:59.879Z,43.02
2016-11-14T10:39:12.722Z,42.27
2016-11-14T10:40:26.005Z,42.74
2016-11-14T10:41:42.417Z,42.27
2016-11-14T10:42:57.816Z,42.65
2016-11-14T10:44:10.942Z,42.93
2016-11-14T10:45:25.613Z,43.41
2016-11-14T10:46:41.800Z,42.74
2016-11-14T10:47:55.294Z,42.83
2016-11-14T10:49:10.041Z,43.12
2016-11-14T10:50:25.112Z,43.12
2016-11-14T10:51:40.032Z,43.31
2016-11-14T10:52:53.590Z,43.19
2016-11-14T10:54:08.822Z,43.69
2016-11-14T10:55:24.890Z,43.98
2016-11-14T10:56:41.408Z,43.5
2016-11-14T10:57:54.593Z,43.29
2016-11-14T10:59:10.003Z,43.67
2016-11-14T11:00:25.125Z,43.88
2016-11-14T11:01:39.751Z,43.6
2016-11-14T11:02:54.141Z,44.26
2016-11-14T11:04:09.272Z,44.24
2016-11-14T11:05:24.150Z,44.45
2016-11-14T11:06:39.870Z,45.02
2016-11-14T11:07:55.747Z,44.73
2016-11-14T11:09:09.138Z,45
2016-11-14T11:10:23.578Z,44.83
2016-11-14T11:11:38.594Z,44.64
2016-11-14T11:12:54.102Z,44.45
2016-11-14T11:14:07.520Z,44.17
2016-11-14T11:15:23.419Z,44.54
2016-11-14T11:16:37.090Z,43.88
2016-11-14T11:17:52.556Z,44.17
2016-11-14T11:19:07.382Z,44.54
2016-11-14T11:20:20.410Z,44.17
2016-11-14T11:21:35.830Z,44.17
2016-11-14T11:22:52.194Z,43.79
2016-11-14T11:24:05.175Z,44.35
2016-11-14T11:25:19.354Z,44.35
2016-11-14T11:26:32.565Z,43.98
2016-11-14T11:27:46.230Z,43.43
2016-11-14T11:29:01.658Z,42.86
2016-11-14T11:30:16.159Z,42.86
2016-11-14T11:31:29.678Z,42.19
2016-11-14T11:32:44.787Z,42.19
2016-11-14T11:34:01.724Z,42.47
2016-11-14T11:35:17.061Z,42.38
2016-11-14T11:36:31.522Z,42.38
2016-11-14T11:37:46.023Z,42.86
2016-11-14T11:39:02.075Z,41.81
2016-11-14T11:40:18.249Z,42.93
2016-11-14T11:41:34.894Z,42.36
2016-11-14T11:42:51.286Z,42.83
2016-11-14T11:44:06.851Z,43.31
2016-11-14T11:45:21.920Z,43.6
2016-11-14T11:46:36.423Z,43.69
2016-11-14T11:47:51.648Z,44.26
2016-11-14T11:49:03.712Z,43.88
2016-11-14T11:50:16.395Z,43.6
2016-11-14T11:51:29.934Z,43.6
2016-11-14T11:52:44.883Z,43.5
2016-11-14T11:53:58.835Z,42.93
2016-11-14T11:55:15.163Z,42.36
2016-11-14T11:56:29.776Z,42.55
2016-11-14T11:57:43.099Z,43.02
2016-11-14T11:58:58.076Z,43.21
2016-11-14T12:00:14.940Z,43.69
2016-11-14T12:01:28.964Z,44.35
2016-11-14T12:02:42.216Z,44.26
2016-11-14T12:03:56.985Z,43.6
2016-11-14T12:05:11.642Z,43.79
2016-11-14T12:06:28.018Z,43.98
2016-11-14T12:07:41.734Z,44.34
2016-11-14T12:08:58.729Z,44.81
2016-11-14T12:10:12.220Z,44.9
2016-11-14T12:11:26.483Z,45.09
2016-11-14T12:12:40.872Z,44.9
2016-11-14T12:13:55.466Z,45.57
2016-11-14T12:15:10.149Z,45.19
2016-11-14T12:16:23.705Z,45.19
2016-11-14T12:17:40.119Z,45.85
2016-11-14T12:18:56.128Z,45.66
2016-11-14T12:20:08.146Z,45.66
2016-11-14T12:21:21.950Z,46.04
2016-11-14T12:22:38.810Z,45.76
2016-11-14T12:23:53.570Z,45.85
2016-11-14T12:25:06.945Z,45.57
2016-11-14T12:26:23.894Z,45.57
2016-11-14T12:27:36.124Z,45.66
2016-11-14T12:28:52.120Z,45.66
2016-11-14T12:30:07.709Z,45.85
2016-11-14T12:31:24.455Z,45.19
2016-11-14T12:32:39.245Z,45.57
2016-11-14T12:33:53.935Z,45.66
2016-11-14T12:35:08.688Z,45.85
2016-11-14T12:36:22.312Z,45.85
2016-11-14T12:37:38.828Z,46.04
2016-11-14T12:38:52.425Z,46.7
2016-11-14T12:40:07.155Z,46.21
2016-11-14T12:41:20.603Z,46.8
2016-11-14T12:42:37.053Z,46.9
2016-11-14T12:43:50.589Z,46.61
2016-11-14T12:45:05.265Z,46.7
2016-11-14T12:46:19.919Z,47.37
2016-11-14T12:47:36.470Z,46.9
2016-11-14T12:48:52.747Z,46.51
2016-11-14T12:50:08.670Z,47.37
2016-11-14T12:51:22.325Z,47.37
2016-11-14T12:52:35.711Z,47.47
2016-11-14T12:53:50.791Z,46.99
2016-11-14T12:55:04.807Z,46.8
2016-11-14T12:56:20.441Z,46.8
2016-11-14T12:57:37.016Z,46.51
2016-11-14T12:58:50.426Z,46.42
2016-11-14T13:00:06.753Z,46.51
2016-11-14T13:01:21.344Z,46.61
2016-11-14T13:02:34.727Z,46.42
2016-11-14T13:03:49.836Z,46.7
2016-11-14T13:05:05.971Z,46.61
2016-11-14T13:06:22.212Z,46.99
2016-11-14T13:07:37.919Z,47.18
2016-11-14T13:08:53.228Z,46.51
2016-11-14T13:10:09.787Z,46.99
2016-11-14T13:11:24.926Z,46.9
2016-11-14T13:12:39.617Z,46.23
2016-11-14T13:13:54.526Z,46.35
2016-11-14T13:15:09.528Z,46.25
2016-11-14T13:16:25.663Z,46.06
2016-11-14T13:17:39.692Z,46.45
2016-11-14T13:18:55.992Z,46.54
2016-11-14T13:20:10.901Z,45.59
2016-11-14T13:21:25.844Z,46.16
2016-11-14T13:22:42.132Z,46.16
2016-11-14T13:23:57.048Z,46.73
2016-11-14T13:25:12.265Z,47.02
2016-11-14T13:26:25.685Z,46.54
2016-11-14T13:27:42.263Z,46.25
2016-11-14T13:28:57.755Z,45.87
2016-11-14T13:30:12.957Z,45.68
2016-11-14T13:31:28.463Z,45.87
2016-11-14T13:32:44.501Z,45.5
2016-11-14T13:33:58.550Z,45.68
2016-11-14T13:35:15.337Z,46.7
2016-11-14T13:36:31.362Z,46.45
2016-11-14T13:37:47.821Z,45.97
2016-11-14T13:39:02.331Z,46.51
2016-11-14T13:40:15.717Z,46.35
2016-11-14T13:41:31.478Z,46.42
2016-11-14T13:42:47.792Z,46.51
2016-11-14T13:44:02.628Z,46.8
2016-11-14T13:45:17.428Z,46.35
2016-11-14T13:46:33.108Z,46.64
2016-11-14T13:47:49.809Z,46.16
2016-11-14T13:49:06.649Z,46.06
2016-11-14T13:50:22.033Z,46.16
2016-11-14T13:51:38.165Z,45.68
2016-11-14T13:52:51.714Z,45.4
2016-11-14T13:54:06.305Z,45.59
2016-11-14T13:55:19.698Z,45.12
2016-11-14T13:56:35.729Z,44.83
2016-11-14T13:57:49.394Z,45.68
2016-11-14T13:59:05.105Z,44.64
2016-11-14T14:00:20.434Z,43.69
2016-11-14T14:01:36.635Z,43.21
2016-11-14T14:02:51.824Z,43.88
2016-11-14T14:04:06.675Z,43.88
2016-11-14T14:05:19.754Z,43.69
2016-11-14T14:06:32.958Z,43.12
2016-11-14T14:07:47.746Z,43.01
2016-11-14T14:09:02.871Z,43.29
2016-11-14T14:10:18.355Z,42.82
2016-11-14T14:11:34.645Z,42.91
2016-11-14T14:12:49.677Z,43.29
2016-11-14T14:14:01.801Z,42.82
2016-11-14T14:15:16.789Z,43.01
2016-11-14T14:16:32.174Z,42.53
2016-11-14T14:17:46.764Z,41.96
2016-11-14T14:19:01.953Z,41.86
2016-11-14T14:20:16.857Z,41.67
2016-11-14T14:21:30.678Z,41.86
2016-11-14T14:22:45.671Z,41.58
2016-11-14T14:24:00.352Z,42.24
2016-11-14T14:25:12.588Z,41.96
2016-11-14T14:26:27.556Z,41.96
2016-11-14T14:27:42.192Z,41.67
2016-11-14T14:28:54.225Z,41.49
2016-11-14T14:30:07.887Z,41.77
2016-11-14T14:31:22.886Z,41.49
2016-11-14T14:32:37.668Z,41.39
2016-11-14T14:33:50.963Z,41.49
2016-11-14T14:35:05.221Z,41.2
2016-11-14T14:36:20.524Z,41.58
2016-11-14T14:37:34.009Z,41.58
2016-11-14T14:38:49.738Z,41.58
2016-11-14T14:40:02.581Z,41.11
2016-11-14T14:41:17.880Z,41.58
2016-11-14T14:42:32.425Z,41.39
2016-11-14T14:43:48.814Z,41.58
2016-11-14T14:45:05.497Z,41.86
2016-11-14T14:46:20.652Z,41.49
2016-11-14T14:47:35.037Z,41.49
2016-11-14T14:48:46.859Z,41.86
2016-11-14T14:50:00.077Z,41.49
2016-11-14T14:51:15.588Z,41.77
2016-11-14T14:52:30.673Z,42.15
2016-11-14T14:53:46.802Z,42.24
2016-11-14T14:55:03.111Z,42.63
2016-11-14T14:56:16.161Z,42.63
2016-11-14T14:57:29.335Z,42.72
2016-11-14T14:58:43.762Z,43.19
2016-11-14T14:59:57.126Z,42.15
2016-11-14T15:01:13.591Z,42.53
2016-11-14T15:02:27.566Z,42.91
2016-11-14T15:03:42.883Z,42.34
2016-11-14T15:04:57.809Z,42.53
2016-11-14T15:06:12.227Z,43.38
2016-11-14T15:07:26.676Z,43.29
2016-11-14T15:08:41.923Z,42.91
2016-11-14T15:09:56.803Z,42.91
2016-11-14T15:11:12.949Z,43.01
2016-11-14T15:12:28.479Z,43.1
2016-11-14T15:13:42.285Z,43.1
2016-11-14T15:14:57.044Z,43.38
2016-11-14T15:16:08.895Z,43.29
2016-11-14T15:17:21.918Z,43.38
2016-11-14T15:18:38.657Z,43.29
2016-11-14T15:19:53.692Z,42.91
2016-11-14T15:21:07.884Z,43.01
2016-11-14T15:22:24.473Z,43.01
2016-11-14T15:23:40.587Z,43.29
2016-11-14T15:24:53.546Z,43.1
2016-11-14T15:26:07.817Z,43.46
2016-11-14T15:27:22.229Z,43.27
2016-11-14T15:28:39.147Z,43.08
2016-11-14T15:29:55.534Z,43.74
2016-11-14T15:31:12.001Z,43.84
2016-11-14T15:32:25.592Z,43.93
2016-11-14T15:33:40.689Z,43.65
2016-11-14T15:34:57.665Z,43.74
2016-11-14T15:36:13.609Z,44.21
2016-11-14T15:37:29.742Z,44.31
2016-11-14T15:38:44.123Z,44.21
2016-11-14T15:39:58.319Z,44.31
2016-11-14T15:41:13.316Z,44.31
2016-11-14T15:42:30.469Z,44.31
2016-11-14T15:43:46.774Z,44.6
2016-11-14T15:45:00.475Z,44.6
2016-11-14T15:46:12.185Z,44.6
2016-11-14T15:47:28.340Z,44.6
2016-11-14T15:48:45.074Z,44.31
2016-11-14T15:50:01.402Z,44.4
2016-11-14T15:51:17.116Z,44.79
2016-11-14T15:52:31.225Z,44.79
2016-11-14T15:53:47.776Z,45.07
2016-11-14T15:55:03.361Z,45.26
2016-11-14T15:56:16.125Z,45.17
2016-11-14T15:57:29.911Z,44.6
2016-11-14T15:58:43.716Z,45.17
2016-11-14T15:59:57.555Z,44.79
2016-11-14T16:04:43.402Z,44.98
2016-11-14T16:05:59.392Z,44.79
2016-11-14T16:07:13.599Z,44.98
2016-11-14T16:08:27.454Z,44.98
2016-11-14T16:09:43.799Z,45.45
2016-11-14T16:10:58.165Z,45.83
2016-11-14T16:12:12.709Z,45.73